sensor_id;sensor_type;location;lat;lon;timestamp;temperature;humidity
37460;DHT22;23318;50.966;5.284;2023-06-14T00:01:44;20.70;77.40
37460;DHT22;23318;50.966;5.284;2023-06-14T00:04:14;20.60;77.30
37460;DHT22;23318;50.966;5.284;2023-06-14T00:06:42;20.60;78.00
37460;DHT22;23318;50.966;5.284;2023-06-14T00:09:11;20.50;78.40
37460;DHT22;23318;50.966;5.284;2023-06-14T00:11:39;20.50;78.60
37460;DHT22;23318;50.966;5.284;2023-06-14T00:14:05;20.40;79.00
37460;DHT22;23318;50.966;5.284;2023-06-14T00:16:30;20.40;79.70
37460;DHT22;23318;50.966;5.284;2023-06-14T00:18:58;20.40;80.10
37460;DHT22;23318;50.966;5.284;2023-06-14T00:21:23;20.40;79.30
37460;DHT22;23318;50.966;5.284;2023-06-14T00:23:49;20.40;79.50
37460;DHT22;23318;50.966;5.284;2023-06-14T00:26:15;20.40;80.50
37460;DHT22;23318;50.966;5.284;2023-06-14T00:28:41;20.30;81.00
37460;DHT22;23318;50.966;5.284;2023-06-14T00:31:06;20.30;80.40
37460;DHT22;23318;50.966;5.284;2023-06-14T00:33:32;20.30;80.50
37460;DHT22;23318;50.966;5.284;2023-06-14T00:35:57;20.10;81.70
37460;DHT22;23318;50.966;5.284;2023-06-14T00:38:23;20.10;82.30
37460;DHT22;23318;50.966;5.284;2023-06-14T00:40:49;20.10;82.60
37460;DHT22;23318;50.966;5.284;2023-06-14T00:43:14;20.10;82.70
37460;DHT22;23318;50.966;5.284;2023-06-14T00:45:40;20.10;82.60
37460;DHT22;23318;50.966;5.284;2023-06-14T00:48:06;20.10;82.90
37460;DHT22;23318;50.966;5.284;2023-06-14T00:50:34;20.00;83.90
37460;DHT22;23318;50.966;5.284;2023-06-14T00:53:01;20.00;84.10
37460;DHT22;23318;50.966;5.284;2023-06-14T00:55:27;19.90;84.40
37460;DHT22;23318;50.966;5.284;2023-06-14T00:57:54;19.80;83.50
37460;DHT22;23318;50.966;5.284;2023-06-14T01:00:20;19.80;84.40
37460;DHT22;23318;50.966;5.284;2023-06-14T01:02:46;19.80;84.40
37460;DHT22;23318;50.966;5.284;2023-06-14T01:05:12;19.70;85.10
37460;DHT22;23318;50.966;5.284;2023-06-14T01:07:50;19.70;84.70
37460;DHT22;23318;50.966;5.284;2023-06-14T01:15:39;19.50;86.30
37460;DHT22;23318;50.966;5.284;2023-06-14T01:18:06;19.50;87.60
37460;DHT22;23318;50.966;5.284;2023-06-14T01:20:33;19.50;87.40
37460;DHT22;23318;50.966;5.284;2023-06-14T01:23:02;19.50;88.00
37460;DHT22;23318;50.966;5.284;2023-06-14T01:25:27;19.50;88.00
37460;DHT22;23318;50.966;5.284;2023-06-14T01:27:55;19.40;88.20
37460;DHT22;23318;50.966;5.284;2023-06-14T01:30:23;19.40;89.10
37460;DHT22;23318;50.966;5.284;2023-06-14T01:32:51;19.40;89.60
37460;DHT22;23318;50.966;5.284;2023-06-14T01:35:18;19.30;90.50
37460;DHT22;23318;50.966;5.284;2023-06-14T01:37:44;19.40;90.70
37460;DHT22;23318;50.966;5.284;2023-06-14T01:40:12;19.40;90.40
37460;DHT22;23318;50.966;5.284;2023-06-14T01:42:40;19.40;90.10
37460;DHT22;23318;50.966;5.284;2023-06-14T01:45:07;19.30;90.50
37460;DHT22;23318;50.966;5.284;2023-06-14T01:47:34;19.20;91.40
37460;DHT22;23318;50.966;5.284;2023-06-14T01:50:02;19.30;91.40
37460;DHT22;23318;50.966;5.284;2023-06-14T01:52:28;19.30;91.20
37460;DHT22;23318;50.966;5.284;2023-06-14T01:54:54;19.20;91.30
37460;DHT22;23318;50.966;5.284;2023-06-14T01:57:19;19.20;91.40
37460;DHT22;23318;50.966;5.284;2023-06-14T01:59:46;19.20;91.90
37460;DHT22;23318;50.966;5.284;2023-06-14T02:02:14;19.30;91.90
37460;DHT22;23318;50.966;5.284;2023-06-14T02:04:40;19.30;92.00
37460;DHT22;23318;50.966;5.284;2023-06-14T02:07:06;19.20;92.10
37460;DHT22;23318;50.966;5.284;2023-06-14T02:09:33;19.10;92.40
37460;DHT22;23318;50.966;5.284;2023-06-14T02:11:59;19.10;92.50
37460;DHT22;23318;50.966;5.284;2023-06-14T02:14:25;19.10;93.10
37460;DHT22;23318;50.966;5.284;2023-06-14T02:16:51;19.10;93.00
37460;DHT22;23318;50.966;5.284;2023-06-14T02:19:19;19.00;93.20
37460;DHT22;23318;50.966;5.284;2023-06-14T02:21:45;19.00;92.70
37460;DHT22;23318;50.966;5.284;2023-06-14T02:24:11;18.90;93.10
37460;DHT22;23318;50.966;5.284;2023-06-14T02:26:37;18.90;92.90
37460;DHT22;23318;50.966;5.284;2023-06-14T02:29:08;18.90;92.90
37460;DHT22;23318;50.966;5.284;2023-06-14T02:31:36;18.80;93.10
37460;DHT22;23318;50.966;5.284;2023-06-14T02:34:02;18.80;93.20
37460;DHT22;23318;50.966;5.284;2023-06-14T02:36:28;18.80;93.10
37460;DHT22;23318;50.966;5.284;2023-06-14T02:38:57;18.70;93.20
37460;DHT22;23318;50.966;5.284;2023-06-14T02:41:26;18.60;93.50
37460;DHT22;23318;50.966;5.284;2023-06-14T02:43:52;18.50;93.80
37460;DHT22;23318;50.966;5.284;2023-06-14T02:46:18;18.50;94.10
37460;DHT22;23318;50.966;5.284;2023-06-14T02:48:44;18.40;93.90
37460;DHT22;23318;50.966;5.284;2023-06-14T02:51:10;18.40;94.30
37460;DHT22;23318;50.966;5.284;2023-06-14T02:53:36;18.40;94.50
37460;DHT22;23318;50.966;5.284;2023-06-14T02:56:02;18.40;94.20
37460;DHT22;23318;50.966;5.284;2023-06-14T02:58:29;18.40;94.20
37460;DHT22;23318;50.966;5.284;2023-06-14T03:00:55;18.40;94.70
37460;DHT22;23318;50.966;5.284;2023-06-14T03:03:21;18.30;94.50
37460;DHT22;23318;50.966;5.284;2023-06-14T03:05:50;18.30;94.80
37460;DHT22;23318;50.966;5.284;2023-06-14T03:08:17;18.30;94.90
37460;DHT22;23318;50.966;5.284;2023-06-14T03:10:48;18.30;95.40
37460;DHT22;23318;50.966;5.284;2023-06-14T03:13:14;18.30;95.10
37460;DHT22;23318;50.966;5.284;2023-06-14T03:15:41;18.30;95.10
37460;DHT22;23318;50.966;5.284;2023-06-14T03:18:10;18.20;95.30
37460;DHT22;23318;50.966;5.284;2023-06-14T03:20:37;18.30;95.40
37460;DHT22;23318;50.966;5.284;2023-06-14T03:23:04;18.20;95.50
37460;DHT22;23318;50.966;5.284;2023-06-14T03:25:31;18.20;95.30
37460;DHT22;23318;50.966;5.284;2023-06-14T03:27:57;18.10;95.50
37460;DHT22;23318;50.966;5.284;2023-06-14T03:30:23;18.00;95.70
37460;DHT22;23318;50.966;5.284;2023-06-14T03:32:49;17.90;95.70
37460;DHT22;23318;50.966;5.284;2023-06-14T03:35:17;17.90;96.30
37460;DHT22;23318;50.966;5.284;2023-06-14T03:37:44;17.70;96.40
37460;DHT22;23318;50.966;5.284;2023-06-14T03:40:10;17.70;96.60
37460;DHT22;23318;50.966;5.284;2023-06-14T03:42:36;17.70;96.60
37460;DHT22;23318;50.966;5.284;2023-06-14T03:45:02;17.60;96.70
37460;DHT22;23318;50.966;5.284;2023-06-14T03:47:28;17.50;96.80
37460;DHT22;23318;50.966;5.284;2023-06-14T03:49:53;17.50;96.80
37460;DHT22;23318;50.966;5.284;2023-06-14T03:52:19;17.50;96.80
37460;DHT22;23318;50.966;5.284;2023-06-14T03:54:44;17.50;97.00
37460;DHT22;23318;50.966;5.284;2023-06-14T03:57:11;17.50;97.10
37460;DHT22;23318;50.966;5.284;2023-06-14T03:59:37;17.50;96.90
37460;DHT22;23318;50.966;5.284;2023-06-14T04:02:03;17.60;96.90
37460;DHT22;23318;50.966;5.284;2023-06-14T04:04:28;17.70;96.90
37460;DHT22;23318;50.966;5.284;2023-06-14T04:06:55;17.60;96.80
37460;DHT22;23318;50.966;5.284;2023-06-14T04:09:23;17.60;97.00
37460;DHT22;23318;50.966;5.284;2023-06-14T04:11:52;17.60;96.90
37460;DHT22;23318;50.966;5.284;2023-06-14T04:14:21;17.60;96.90
37460;DHT22;23318;50.966;5.284;2023-06-14T04:16:48;17.80;97.10
37460;DHT22;23318;50.966;5.284;2023-06-14T04:19:15;17.80;96.80
37460;DHT22;23318;50.966;5.284;2023-06-14T04:21:41;17.80;97.10
37460;DHT22;23318;50.966;5.284;2023-06-14T04:24:07;17.90;96.70
37460;DHT22;23318;50.966;5.284;2023-06-14T04:26:38;17.90;96.60
37460;DHT22;23318;50.966;5.284;2023-06-14T04:29:05;17.90;96.80
37460;DHT22;23318;50.966;5.284;2023-06-14T04:31:31;17.90;96.90
37460;DHT22;23318;50.966;5.284;2023-06-14T04:34:03;18.10;96.90
37460;DHT22;23318;50.966;5.284;2023-06-14T04:36:34;18.20;96.60
37460;DHT22;23318;50.966;5.284;2023-06-14T04:39:05;18.30;96.50
37460;DHT22;23318;50.966;5.284;2023-06-14T04:41:31;18.20;96.50
37460;DHT22;23318;50.966;5.284;2023-06-14T04:43:57;18.20;96.70
37460;DHT22;23318;50.966;5.284;2023-06-14T04:46:27;18.30;96.60
37460;DHT22;23318;50.966;5.284;2023-06-14T04:48:54;18.40;96.50
37460;DHT22;23318;50.966;5.284;2023-06-14T04:51:20;18.40;96.70
37460;DHT22;23318;50.966;5.284;2023-06-14T04:53:47;18.40;96.40
37460;DHT22;23318;50.966;5.284;2023-06-14T04:56:15;18.50;96.40
37460;DHT22;23318;50.966;5.284;2023-06-14T04:58:42;18.60;96.50
37460;DHT22;23318;50.966;5.284;2023-06-14T05:01:09;18.70;96.30
37460;DHT22;23318;50.966;5.284;2023-06-14T05:03:34;18.90;96.30
37460;DHT22;23318;50.966;5.284;2023-06-14T05:06:00;19.00;96.20
37460;DHT22;23318;50.966;5.284;2023-06-14T05:08:26;19.00;95.70
37460;DHT22;23318;50.966;5.284;2023-06-14T05:10:52;19.20;95.80
37460;DHT22;23318;50.966;5.284;2023-06-14T05:13:18;19.20;95.30
37460;DHT22;23318;50.966;5.284;2023-06-14T05:15:44;19.20;95.30
37460;DHT22;23318;50.966;5.284;2023-06-14T05:18:10;19.20;95.40
37460;DHT22;23318;50.966;5.284;2023-06-14T05:20:36;19.20;95.50
37460;DHT22;23318;50.966;5.284;2023-06-14T05:23:03;19.20;95.90
37460;DHT22;23318;50.966;5.284;2023-06-14T05:25:28;19.30;95.50
37460;DHT22;23318;50.966;5.284;2023-06-14T05:27:54;19.30;95.70
37460;DHT22;23318;50.966;5.284;2023-06-14T05:30:20;19.20;95.80
37460;DHT22;23318;50.966;5.284;2023-06-14T05:32:46;19.30;96.10
37460;DHT22;23318;50.966;5.284;2023-06-14T05:35:11;19.40;96.00
37460;DHT22;23318;50.966;5.284;2023-06-14T05:37:37;19.50;96.10
37460;DHT22;23318;50.966;5.284;2023-06-14T05:40:04;19.60;95.60
37460;DHT22;23318;50.966;5.284;2023-06-14T05:42:31;19.70;96.00
37460;DHT22;23318;50.966;5.284;2023-06-14T05:44:57;19.70;96.00
37460;DHT22;23318;50.966;5.284;2023-06-14T05:47:23;19.90;95.80
37460;DHT22;23318;50.966;5.284;2023-06-14T05:49:48;20.10;95.60
37460;DHT22;23318;50.966;5.284;2023-06-14T05:52:14;20.10;95.40
37460;DHT22;23318;50.966;5.284;2023-06-14T05:54:40;20.10;95.60
37460;DHT22;23318;50.966;5.284;2023-06-14T05:57:07;20.20;95.60
37460;DHT22;23318;50.966;5.284;2023-06-14T05:59:32;20.30;95.40
37460;DHT22;23318;50.966;5.284;2023-06-14T06:01:58;20.50;95.10
37460;DHT22;23318;50.966;5.284;2023-06-14T06:04:24;20.70;94.90
37460;DHT22;23318;50.966;5.284;2023-06-14T06:06:49;20.70;94.70
37460;DHT22;23318;50.966;5.284;2023-06-14T06:09:15;20.80;94.60
37460;DHT22;23318;50.966;5.284;2023-06-14T06:11:41;21.00;94.30
37460;DHT22;23318;50.966;5.284;2023-06-14T06:14:06;21.10;94.00
37460;DHT22;23318;50.966;5.284;2023-06-14T06:16:32;21.20;93.60
37460;DHT22;23318;50.966;5.284;2023-06-14T06:18:58;21.20;93.50
37460;DHT22;23318;50.966;5.284;2023-06-14T06:21:25;21.30;93.60
37460;DHT22;23318;50.966;5.284;2023-06-14T06:23:50;21.50;93.60
37460;DHT22;23318;50.966;5.284;2023-06-14T06:26:16;21.50;93.60
37460;DHT22;23318;50.966;5.284;2023-06-14T06:28:42;21.50;93.10
37460;DHT22;23318;50.966;5.284;2023-06-14T06:31:07;21.50;93.00
37460;DHT22;23318;50.966;5.284;2023-06-14T06:33:33;21.40;93.30
37460;DHT22;23318;50.966;5.284;2023-06-14T06:35:59;21.50;93.40
37460;DHT22;23318;50.966;5.284;2023-06-14T06:38:24;21.60;93.30
37460;DHT22;23318;50.966;5.284;2023-06-14T06:40:50;21.60;93.20
37460;DHT22;23318;50.966;5.284;2023-06-14T06:43:16;21.60;92.80
37460;DHT22;23318;50.966;5.284;2023-06-14T06:45:43;21.50;93.10
37460;DHT22;23318;50.966;5.284;2023-06-14T06:48:09;21.70;93.20
37460;DHT22;23318;50.966;5.284;2023-06-14T06:50:37;21.80;92.70
37460;DHT22;23318;50.966;5.284;2023-06-14T06:53:04;21.80;92.80
37460;DHT22;23318;50.966;5.284;2023-06-14T06:55:30;21.70;92.60
37460;DHT22;23318;50.966;5.284;2023-06-14T06:57:56;21.70;92.70
37460;DHT22;23318;50.966;5.284;2023-06-14T07:00:22;21.80;92.80
37460;DHT22;23318;50.966;5.284;2023-06-14T07:02:47;21.90;92.30
37460;DHT22;23318;50.966;5.284;2023-06-14T07:05:15;21.90;92.10
37460;DHT22;23318;50.966;5.284;2023-06-14T07:07:41;22.20;92.10
37460;DHT22;23318;50.966;5.284;2023-06-14T07:10:07;22.30;91.70
37460;DHT22;23318;50.966;5.284;2023-06-14T07:12:33;22.40;91.80
37460;DHT22;23318;50.966;5.284;2023-06-14T07:15:01;22.40;91.30
37460;DHT22;23318;50.966;5.284;2023-06-14T07:17:27;22.50;91.60
37460;DHT22;23318;50.966;5.284;2023-06-14T07:19:52;22.50;90.40
37460;DHT22;23318;50.966;5.284;2023-06-14T07:22:19;22.40;90.80
37460;DHT22;23318;50.966;5.284;2023-06-14T07:24:45;22.40;90.30
37460;DHT22;23318;50.966;5.284;2023-06-14T07:27:11;22.50;90.60
37460;DHT22;23318;50.966;5.284;2023-06-14T07:29:38;22.40;89.80
37460;DHT22;23318;50.966;5.284;2023-06-14T07:32:04;22.50;90.10
37460;DHT22;23318;50.966;5.284;2023-06-14T07:34:30;22.60;89.30
37460;DHT22;23318;50.966;5.284;2023-06-14T07:36:56;22.70;89.90
37460;DHT22;23318;50.966;5.284;2023-06-14T07:39:22;22.60;87.80
37460;DHT22;23318;50.966;5.284;2023-06-14T07:41:47;22.70;88.80
37460;DHT22;23318;50.966;5.284;2023-06-14T07:44:13;22.70;89.40
37460;DHT22;23318;50.966;5.284;2023-06-14T07:46:39;22.70;87.90
37460;DHT22;23318;50.966;5.284;2023-06-14T07:49:04;22.60;87.20
37460;DHT22;23318;50.966;5.284;2023-06-14T07:51:30;22.70;88.20
37460;DHT22;23318;50.966;5.284;2023-06-14T07:53:56;22.90;87.40
37460;DHT22;23318;50.966;5.284;2023-06-14T07:56:22;22.90;86.80
37460;DHT22;23318;50.966;5.284;2023-06-14T07:58:48;23.00;86.40
37460;DHT22;23318;50.966;5.284;2023-06-14T08:01:14;23.00;85.20
37460;DHT22;23318;50.966;5.284;2023-06-14T08:03:40;22.90;85.60
37460;DHT22;23318;50.966;5.284;2023-06-14T08:06:06;22.90;85.40
37460;DHT22;23318;50.966;5.284;2023-06-14T08:08:32;23.10;84.90
37460;DHT22;23318;50.966;5.284;2023-06-14T08:10:58;23.00;84.10
37460;DHT22;23318;50.966;5.284;2023-06-14T08:13:24;23.10;85.40
37460;DHT22;23318;50.966;5.284;2023-06-14T08:15:50;23.50;85.80
37460;DHT22;23318;50.966;5.284;2023-06-14T08:18:15;23.80;84.60
37460;DHT22;23318;50.966;5.284;2023-06-14T08:20:41;23.90;84.60
37460;DHT22;23318;50.966;5.284;2023-06-14T08:23:07;23.80;84.20
37460;DHT22;23318;50.966;5.284;2023-06-14T08:25:34;23.70;83.90
37460;DHT22;23318;50.966;5.284;2023-06-14T08:28:00;23.70;84.40
37460;DHT22;23318;50.966;5.284;2023-06-14T08:30:26;23.90;84.30
37460;DHT22;23318;50.966;5.284;2023-06-14T08:32:51;23.90;83.80
37460;DHT22;23318;50.966;5.284;2023-06-14T08:35:17;24.00;83.90
37460;DHT22;23318;50.966;5.284;2023-06-14T08:37:44;24.10;83.40
37460;DHT22;23318;50.966;5.284;2023-06-14T08:40:22;24.20;83.00
37460;DHT22;23318;50.966;5.284;2023-06-14T08:42:51;24.10;82.30
37460;DHT22;23318;50.966;5.284;2023-06-14T08:45:19;24.10;82.40
37460;DHT22;23318;50.966;5.284;2023-06-14T08:47:45;24.20;82.60
37460;DHT22;23318;50.966;5.284;2023-06-14T08:50:19;24.30;82.70
37460;DHT22;23318;50.966;5.284;2023-06-14T08:52:46;24.30;81.70
37460;DHT22;23318;50.966;5.284;2023-06-14T08:55:16;24.40;82.90
37460;DHT22;23318;50.966;5.284;2023-06-14T08:57:44;24.30;81.80
37460;DHT22;23318;50.966;5.284;2023-06-14T09:00:12;24.30;81.00
37460;DHT22;23318;50.966;5.284;2023-06-14T09:02:39;24.20;79.40
37460;DHT22;23318;50.966;5.284;2023-06-14T09:05:09;24.30;81.50
37460;DHT22;23318;50.966;5.284;2023-06-14T09:07:37;24.60;81.70
37460;DHT22;23318;50.966;5.284;2023-06-14T09:10:12;24.70;81.10
37460;DHT22;23318;50.966;5.284;2023-06-14T09:12:38;24.70;80.80
37460;DHT22;23318;50.966;5.284;2023-06-14T09:15:08;24.90;78.70
37460;DHT22;23318;50.966;5.284;2023-06-14T09:17:38;24.80;76.60
37460;DHT22;23318;50.966;5.284;2023-06-14T09:20:08;24.50;75.20
37460;DHT22;23318;50.966;5.284;2023-06-14T09:22:44;24.50;76.00
37460;DHT22;23318;50.966;5.284;2023-06-14T09:25:10;24.50;75.50
37460;DHT22;23318;50.966;5.284;2023-06-14T09:27:37;24.40;76.70
37460;DHT22;23318;50.966;5.284;2023-06-14T09:30:05;24.70;77.50
37460;DHT22;23318;50.966;5.284;2023-06-14T09:32:37;24.80;75.60
37460;DHT22;23318;50.966;5.284;2023-06-14T09:35:05;25.10;75.60
37460;DHT22;23318;50.966;5.284;2023-06-14T09:37:31;24.90;75.50
37460;DHT22;23318;50.966;5.284;2023-06-14T09:39:58;24.90;75.20
37460;DHT22;23318;50.966;5.284;2023-06-14T09:42:24;24.90;75.00
37460;DHT22;23318;50.966;5.284;2023-06-14T09:44:56;24.90;74.30
37460;DHT22;23318;50.966;5.284;2023-06-14T09:47:23;24.70;74.60
37460;DHT22;23318;50.966;5.284;2023-06-14T09:49:50;24.70;74.20
37460;DHT22;23318;50.966;5.284;2023-06-14T09:52:20;24.70;74.80
37460;DHT22;23318;50.966;5.284;2023-06-14T09:54:47;24.90;74.20
37460;DHT22;23318;50.966;5.284;2023-06-14T09:57:15;24.90;73.70
37460;DHT22;23318;50.966;5.284;2023-06-14T09:59:45;24.90;73.50
37460;DHT22;23318;50.966;5.284;2023-06-14T10:02:21;25.00;73.70
37460;DHT22;23318;50.966;5.284;2023-06-14T10:04:56;25.10;73.80
37460;DHT22;23318;50.966;5.284;2023-06-14T10:07:25;24.80;73.20
37460;DHT22;23318;50.966;5.284;2023-06-14T10:09:53;25.00;74.20
37460;DHT22;23318;50.966;5.284;2023-06-14T10:12:18;25.30;73.70
37460;DHT22;23318;50.966;5.284;2023-06-14T10:14:49;25.40;72.90
37460;DHT22;23318;50.966;5.284;2023-06-14T10:17:22;25.60;72.20
37460;DHT22;23318;50.966;5.284;2023-06-14T10:19:54;25.90;72.10
37460;DHT22;23318;50.966;5.284;2023-06-14T10:22:26;26.10;71.30
37460;DHT22;23318;50.966;5.284;2023-06-14T10:24:55;26.30;71.80
37460;DHT22;23318;50.966;5.284;2023-06-14T10:27:21;26.30;70.40
37460;DHT22;23318;50.966;5.284;2023-06-14T10:32:18;26.00;70.00
37460;DHT22;23318;50.966;5.284;2023-06-14T10:35:04;25.90;70.60
37460;DHT22;23318;50.966;5.284;2023-06-14T10:37:31;26.20;71.80
37460;DHT22;23318;50.966;5.284;2023-06-14T10:39:56;26.20;71.00
37460;DHT22;23318;50.966;5.284;2023-06-14T10:42:28;26.10;71.40
37460;DHT22;23318;50.966;5.284;2023-06-14T10:44:55;26.30;70.50
37460;DHT22;23318;50.966;5.284;2023-06-14T10:47:31;26.40;68.50
37460;DHT22;23318;50.966;5.284;2023-06-14T10:50:22;26.50;68.70
37460;DHT22;23318;50.966;5.284;2023-06-14T10:52:48;26.30;68.40
37460;DHT22;23318;50.966;5.284;2023-06-14T10:55:17;26.90;67.70
37460;DHT22;23318;50.966;5.284;2023-06-14T10:57:49;28.20;65.50
37460;DHT22;23318;50.966;5.284;2023-06-14T11:00:27;29.60;63.50
37460;DHT22;23318;50.966;5.284;2023-06-14T11:06:12;29.50;60.40
37460;DHT22;23318;50.966;5.284;2023-06-14T11:11:10;29.90;58.70
37460;DHT22;23318;50.966;5.284;2023-06-14T11:13:55;30.60;57.80
37460;DHT22;23318;50.966;5.284;2023-06-14T11:16:25;31.00;55.50
37460;DHT22;23318;50.966;5.284;2023-06-14T11:18:51;29.90;56.10
37460;DHT22;23318;50.966;5.284;2023-06-14T11:21:17;29.30;54.70
37460;DHT22;23318;50.966;5.284;2023-06-14T11:23:50;29.70;53.90
37460;DHT22;23318;50.966;5.284;2023-06-14T11:26:24;30.00;53.30
37460;DHT22;23318;50.966;5.284;2023-06-14T11:28:55;31.40;54.30
37460;DHT22;23318;50.966;5.284;2023-06-14T11:31:21;30.30;52.50
37460;DHT22;23318;50.966;5.284;2023-06-14T11:33:50;30.50;51.60
37460;DHT22;23318;50.966;5.284;2023-06-14T11:36:16;31.00;51.20
37460;DHT22;23318;50.966;5.284;2023-06-14T11:38:42;31.30;49.70
37460;DHT22;23318;50.966;5.284;2023-06-14T11:41:07;32.80;49.10
37460;DHT22;23318;50.966;5.284;2023-06-14T11:43:33;33.30;48.00
37460;DHT22;23318;50.966;5.284;2023-06-14T11:46:00;31.60;48.50
37460;DHT22;23318;50.966;5.284;2023-06-14T11:48:41;31.30;49.20
37460;DHT22;23318;50.966;5.284;2023-06-14T11:51:07;30.40;48.40
37460;DHT22;23318;50.966;5.284;2023-06-14T11:53:33;30.20;48.60
37460;DHT22;23318;50.966;5.284;2023-06-14T11:55:59;31.70;48.80
37460;DHT22;23318;50.966;5.284;2023-06-14T11:58:26;33.30;46.90
37460;DHT22;23318;50.966;5.284;2023-06-14T12:00:53;33.80;46.20
37460;DHT22;23318;50.966;5.284;2023-06-14T12:03:23;34.30;48.00
37460;DHT22;23318;50.966;5.284;2023-06-14T12:06:01;33.20;46.80
37460;DHT22;23318;50.966;5.284;2023-06-14T12:08:32;32.80;46.60
37460;DHT22;23318;50.966;5.284;2023-06-14T12:11:04;34.00;46.90
37460;DHT22;23318;50.966;5.284;2023-06-14T12:13:30;34.90;45.10
37460;DHT22;23318;50.966;5.284;2023-06-14T12:15:58;35.10;45.00
37460;DHT22;23318;50.966;5.284;2023-06-14T12:18:37;35.10;45.00
37460;DHT22;23318;50.966;5.284;2023-06-14T12:21:05;36.10;44.00
37460;DHT22;23318;50.966;5.284;2023-06-14T12:23:43;35.20;44.70
37460;DHT22;23318;50.966;5.284;2023-06-14T12:26:09;34.70;43.00
37460;DHT22;23318;50.966;5.284;2023-06-14T12:28:35;35.30;44.20
37460;DHT22;23318;50.966;5.284;2023-06-14T12:31:01;35.70;43.60
37460;DHT22;23318;50.966;5.284;2023-06-14T12:33:26;32.90;44.10
37460;DHT22;23318;50.966;5.284;2023-06-14T12:35:55;33.40;45.70
37460;DHT22;23318;50.966;5.284;2023-06-14T12:38:22;33.80;44.30
37460;DHT22;23318;50.966;5.284;2023-06-14T12:40:47;35.10;43.10
37460;DHT22;23318;50.966;5.284;2023-06-14T12:43:13;34.40;43.30
37460;DHT22;23318;50.966;5.284;2023-06-14T12:45:39;33.30;44.40
37460;DHT22;23318;50.966;5.284;2023-06-14T12:48:05;32.50;45.00
37460;DHT22;23318;50.966;5.284;2023-06-14T12:50:30;33.30;45.00
37460;DHT22;23318;50.966;5.284;2023-06-14T12:52:56;34.60;44.50
37460;DHT22;23318;50.966;5.284;2023-06-14T12:55:21;35.00;44.20
37460;DHT22;23318;50.966;5.284;2023-06-14T12:57:47;34.90;43.30
37460;DHT22;23318;50.966;5.284;2023-06-14T13:00:15;32.20;44.90
37460;DHT22;23318;50.966;5.284;2023-06-14T13:02:41;32.80;45.10
37460;DHT22;23318;50.966;5.284;2023-06-14T13:05:06;35.30;44.00
37460;DHT22;23318;50.966;5.284;2023-06-14T13:07:32;34.10;43.90
37460;DHT22;23318;50.966;5.284;2023-06-14T13:09:58;34.60;43.20
37460;DHT22;23318;50.966;5.284;2023-06-14T13:12:23;34.80;43.80
37460;DHT22;23318;50.966;5.284;2023-06-14T13:14:49;34.10;43.90
37460;DHT22;23318;50.966;5.284;2023-06-14T13:17:15;33.80;44.10
37460;DHT22;23318;50.966;5.284;2023-06-14T13:19:41;33.60;45.00
37460;DHT22;23318;50.966;5.284;2023-06-14T13:22:07;32.80;45.80
37460;DHT22;23318;50.966;5.284;2023-06-14T13:24:34;32.90;44.80
37460;DHT22;23318;50.966;5.284;2023-06-14T13:26:59;34.20;43.70
37460;DHT22;23318;50.966;5.284;2023-06-14T13:29:25;35.30;44.30
37460;DHT22;23318;50.966;5.284;2023-06-14T13:31:52;35.40;43.80
37460;DHT22;23318;50.966;5.284;2023-06-14T13:34:18;34.20;45.00
37460;DHT22;23318;50.966;5.284;2023-06-14T13:36:44;34.50;44.10
37460;DHT22;23318;50.966;5.284;2023-06-14T13:39:09;34.40;44.80
37460;DHT22;23318;50.966;5.284;2023-06-14T13:41:36;34.40;44.00
37460;DHT22;23318;50.966;5.284;2023-06-14T13:44:02;32.80;45.10
37460;DHT22;23318;50.966;5.284;2023-06-14T13:46:30;32.80;45.40
37460;DHT22;23318;50.966;5.284;2023-06-14T13:48:57;33.10;45.00
37460;DHT22;23318;50.966;5.284;2023-06-14T13:51:23;33.80;45.40
37460;DHT22;23318;50.966;5.284;2023-06-14T13:53:49;32.90;45.10
37460;DHT22;23318;50.966;5.284;2023-06-14T13:56:17;32.40;44.60
37460;DHT22;23318;50.966;5.284;2023-06-14T13:58:42;32.90;44.60
37460;DHT22;23318;50.966;5.284;2023-06-14T14:01:08;33.50;44.30
37460;DHT22;23318;50.966;5.284;2023-06-14T14:03:35;33.80;45.30
37460;DHT22;23318;50.966;5.284;2023-06-14T14:06:01;33.20;44.30
37460;DHT22;23318;50.966;5.284;2023-06-14T14:08:27;33.20;44.10
37460;DHT22;23318;50.966;5.284;2023-06-14T14:10:53;33.70;44.00
37460;DHT22;23318;50.966;5.284;2023-06-14T14:13:19;33.90;43.50
37460;DHT22;23318;50.966;5.284;2023-06-14T14:15:46;34.30;43.70
37460;DHT22;23318;50.966;5.284;2023-06-14T14:18:12;36.90;42.40
37460;DHT22;23318;50.966;5.284;2023-06-14T14:20:37;37.10;41.40
37460;DHT22;23318;50.966;5.284;2023-06-14T14:23:03;37.40;41.50
37460;DHT22;23318;50.966;5.284;2023-06-14T14:25:28;35.80;41.20
37460;DHT22;23318;50.966;5.284;2023-06-14T14:27:54;35.30;41.80
37460;DHT22;23318;50.966;5.284;2023-06-14T14:30:20;34.10;42.60
37460;DHT22;23318;50.966;5.284;2023-06-14T14:32:49;32.90;43.10
37460;DHT22;23318;50.966;5.284;2023-06-14T14:35:16;34.20;44.10
37460;DHT22;23318;50.966;5.284;2023-06-14T14:37:42;36.20;43.60
37460;DHT22;23318;50.966;5.284;2023-06-14T14:40:08;35.70;41.30
37460;DHT22;23318;50.966;5.284;2023-06-14T14:42:35;33.80;42.80
37460;DHT22;23318;50.966;5.284;2023-06-14T14:45:01;34.60;43.10
37460;DHT22;23318;50.966;5.284;2023-06-14T14:47:26;36.60;41.90
37460;DHT22;23318;50.966;5.284;2023-06-14T14:49:52;36.60;41.10
37460;DHT22;23318;50.966;5.284;2023-06-14T14:52:18;35.80;41.60
37460;DHT22;23318;50.966;5.284;2023-06-14T14:54:43;36.40;41.70
37460;DHT22;23318;50.966;5.284;2023-06-14T14:57:09;35.60;41.80
37460;DHT22;23318;50.966;5.284;2023-06-14T14:59:36;35.30;42.80
37460;DHT22;23318;50.966;5.284;2023-06-14T15:02:02;35.60;41.70
37460;DHT22;23318;50.966;5.284;2023-06-14T15:04:28;35.00;42.90
37460;DHT22;23318;50.966;5.284;2023-06-14T15:06:53;33.30;42.80
37460;DHT22;23318;50.966;5.284;2023-06-14T15:09:19;33.00;43.50
37460;DHT22;23318;50.966;5.284;2023-06-14T15:11:45;34.40;43.50
37460;DHT22;23318;50.966;5.284;2023-06-14T15:14:11;34.70;42.10
37460;DHT22;23318;50.966;5.284;2023-06-14T15:16:36;35.30;41.80
37460;DHT22;23318;50.966;5.284;2023-06-14T15:19:02;35.80;41.80
37460;DHT22;23318;50.966;5.284;2023-06-14T15:21:28;35.50;42.20
37460;DHT22;23318;50.966;5.284;2023-06-14T15:23:53;35.30;42.60
37460;DHT22;23318;50.966;5.284;2023-06-14T15:26:20;35.70;42.70
37460;DHT22;23318;50.966;5.284;2023-06-14T15:28:45;34.40;42.10
37460;DHT22;23318;50.966;5.284;2023-06-14T15:31:11;34.80;42.90
37460;DHT22;23318;50.966;5.284;2023-06-14T15:33:37;34.80;42.70
37460;DHT22;23318;50.966;5.284;2023-06-14T15:36:03;33.80;43.00
37460;DHT22;23318;50.966;5.284;2023-06-14T15:38:29;32.00;43.40
37460;DHT22;23318;50.966;5.284;2023-06-14T15:40:55;31.80;43.10
37460;DHT22;23318;50.966;5.284;2023-06-14T15:43:21;31.70;44.10